createdAt,value
2019-04-03T00:00:10.070Z,0.2
2019-04-03T00:00:21.960Z,0.2
2019-04-03T00:00:34.469Z,0.1
2019-04-03T00:00:45.675Z,0.1
2019-04-03T00:00:57.611Z,0.1
2019-04-03T00:01:10.448Z,0.2
2019-04-03T00:01:22.341Z,0.2
2019-04-03T00:01:34.690Z,0.3
2019-04-03T00:01:46.148Z,0.3
2019-04-03T00:01:57.993Z,0.3
2019-04-03T00:02:10.019Z,0.3
2019-04-03T00:02:21.853Z,0.2
2019-04-03T00:02:34.316Z,0.1
2019-04-03T00:02:45.863Z,0.2
2019-04-03T00:02:57.663Z,0.2
2019-04-03T00:03:09.632Z,0.2
2019-04-03T00:03:21.461Z,0.2
2019-04-03T00:03:34.156Z,0.2
2019-04-03T00:03:45.366Z,0.1
2019-04-03T00:03:57.224Z,0.1
2019-04-03T00:04:10.037Z,0.1
2019-04-03T00:04:21.909Z,0.2
2019-04-03T00:04:34.303Z,0.2
2019-04-03T00:04:45.711Z,0.2
2019-04-03T00:04:57.776Z,0.2
2019-04-03T00:05:10.620Z,0.2
2019-04-03T00:05:22.564Z,0.1
2019-04-03T00:05:35.380Z,0.1
2019-04-03T00:05:46.242Z,0.1
2019-04-03T00:05:58.260Z,0.1
2019-04-03T00:06:11.275Z,0.1
2019-04-03T00:06:23.111Z,0.1
2019-04-03T00:06:35.304Z,0.1
2019-04-03T00:06:46.841Z,0.1
2019-04-03T00:06:58.670Z,0.1
2019-04-03T00:07:10.637Z,0.2
2019-04-03T00:07:22.474Z,0.2
2019-04-03T00:07:35.955Z,0.2
2019-04-03T00:07:47.162Z,0.2
2019-04-03T00:07:59.000Z,0.2
2019-04-03T00:08:11.825Z,0.2
2019-04-03T00:08:24.797Z,0.2
2019-04-03T00:08:37.062Z,0.2
2019-04-03T00:08:48.542Z,0.2
2019-04-03T00:09:00.605Z,0.2
2019-04-03T00:09:12.429Z,0.1
2019-04-03T00:09:24.265Z,0.1
2019-04-03T00:09:36.786Z,0.1
2019-04-03T00:09:48.097Z,0.2
2019-04-03T00:09:59.977Z,0.2
2019-04-03T00:10:12.800Z,0.2
2019-04-03T00:10:24.671Z,0.2
2019-04-03T00:10:38.172Z,0.2
2019-04-03T00:10:49.408Z,0.1
2019-04-03T00:11:01.318Z,0.1
2019-04-03T00:11:14.136Z,0.2
2019-04-03T00:11:26.088Z,0.3
2019-04-03T00:11:39.727Z,0.7
2019-04-03T00:11:50.947Z,0.6
2019-04-03T00:12:02.759Z,0.6
2019-04-03T00:12:15.600Z,0.2
2019-04-03T00:12:27.440Z,0.3
2019-04-03T00:12:40.963Z,0.2
2019-04-03T00:12:51.256Z,0.2
2019-04-03T00:13:03.139Z,0.2
2019-04-03T00:13:16.047Z,0.2
2019-04-03T00:13:27.885Z,0.1
2019-04-03T00:13:41.829Z,0.1
2019-04-03T00:13:51.607Z,0.1
2019-04-03T00:14:03.575Z,0.2
2019-04-03T00:14:16.550Z,0.3
2019-04-03T00:14:28.424Z,0.4
2019-04-03T00:14:42.148Z,0.2
2019-04-03T00:14:52.097Z,0.2
2019-04-03T00:15:04.142Z,0.1
2019-04-03T00:15:17.050Z,0.2
2019-04-03T00:15:28.983Z,0.2
2019-04-03T00:15:40.895Z,0.3
2019-04-03T00:15:52.775Z,0.2
2019-04-03T00:16:04.646Z,0.2
2019-04-03T00:16:16.666Z,0.5
2019-04-03T00:16:28.688Z,0.5
2019-04-03T00:16:40.459Z,0.1
2019-04-03T00:16:52.295Z,0.1
2019-04-03T00:17:05.264Z,0.2
2019-04-03T00:17:17.185Z,0.2
2019-04-03T00:17:29.212Z,0.1
2019-04-03T00:17:41.059Z,0.1
2019-04-03T00:17:52.882Z,0.2
2019-04-03T00:18:04.726Z,0.2
2019-04-03T00:18:16.867Z,0.2
2019-04-03T00:18:28.682Z,0.1
2019-04-03T00:18:40.555Z,0.1
2019-04-03T00:18:53.379Z,0.1
2019-04-03T00:19:05.227Z,0.2
2019-04-03T00:19:17.680Z,0.2
2019-04-03T00:19:29.062Z,0.2
2019-04-03T00:19:41.145Z,0.3
2019-04-03T00:19:52.807Z,0.2
2019-04-03T00:20:04.671Z,0.3
2019-04-03T00:20:18.374Z,0.3
2019-04-03T00:20:28.632Z,0.3
2019-04-03T00:20:40.479Z,0.2
2019-04-03T00:20:53.422Z,0.2
2019-04-03T00:21:05.269Z,0.2
2019-04-03T00:21:17.645Z,0.2
2019-04-03T00:21:29.184Z,0.1
2019-04-03T00:21:41.046Z,0.2
2019-04-03T00:21:53.971Z,0.2
2019-04-03T00:22:05.718Z,0.2
2019-04-03T00:22:17.684Z,0.3
2019-04-03T00:22:29.619Z,0.3
2019-04-03T00:22:41.523Z,0.3
2019-04-03T00:22:53.333Z,0.1
2019-04-03T00:23:05.354Z,0.1
2019-04-03T00:23:17.267Z,0.1
2019-04-03T00:23:29.435Z,0.1
2019-04-03T00:23:40.995Z,0.1
2019-04-03T00:23:53.124Z,0.2
2019-04-03T00:24:04.857Z,0.2
2019-04-03T00:24:16.939Z,0.2
2019-04-03T00:24:28.658Z,0.3
2019-04-03T00:24:40.551Z,0.3
2019-04-03T00:24:53.382Z,0.2
2019-04-03T00:25:05.188Z,0.2
2019-04-03T00:25:17.343Z,0.1
2019-04-03T00:25:29.172Z,0.1
2019-04-03T00:25:41.075Z,0.8
2019-04-03T00:25:53.159Z,0.8
2019-04-03T00:26:04.995Z,0.8
2019-04-03T00:26:16.875Z,0.1
2019-04-03T00:26:30.466Z,0.4
2019-04-03T00:26:40.770Z,0.4
2019-04-03T00:26:52.931Z,0.2
2019-04-03T00:27:04.690Z,0.2
2019-04-03T00:27:16.470Z,0.2
2019-04-03T00:27:28.298Z,0.2
2019-04-03T00:27:40.256Z,0.1
2019-04-03T00:27:52.883Z,0.4
2019-04-03T00:28:04.101Z,0.5
2019-04-03T00:28:15.965Z,0.5
2019-04-03T00:28:27.885Z,0.1
2019-04-03T00:28:39.836Z,0.1
2019-04-03T00:28:52.240Z,0.1
2019-04-03T00:29:03.523Z,0.3
2019-04-03T00:29:15.487Z,0.4
2019-04-03T00:29:27.401Z,0.4
2019-04-03T00:29:39.247Z,0.3
2019-04-03T00:29:52.137Z,0.1
2019-04-03T00:30:02.960Z,0.2
2019-04-03T00:30:14.872Z,1.2
2019-04-03T00:30:27.884Z,1.2
2019-04-03T00:30:39.641Z,1.8
2019-04-03T00:30:52.869Z,0.5
2019-04-03T00:31:03.418Z,0.1
2019-04-03T00:31:15.314Z,0.2
2019-04-03T00:31:28.204Z,0.1
2019-04-03T00:31:40.166Z,0.2
2019-04-03T00:31:53.649Z,0.2
2019-04-03T00:32:03.906Z,0.2
2019-04-03T00:32:15.792Z,0.2
2019-04-03T00:32:28.784Z,0.2
2019-04-03T00:32:40.752Z,0.2
2019-04-03T00:32:53.492Z,0.2
2019-04-03T00:33:04.568Z,0.1
2019-04-03T00:33:16.416Z,0.1
2019-04-03T00:33:29.238Z,0.1
2019-04-03T00:33:41.169Z,0.1
2019-04-03T00:33:53.697Z,0.2
2019-04-03T00:34:05.050Z,0.2
2019-04-03T00:34:16.882Z,0.2
2019-04-03T00:34:28.886Z,0.3
2019-04-03T00:34:40.835Z,0.2
2019-04-03T00:34:53.406Z,0.1
2019-04-03T00:35:05.556Z,0.2
2019-04-03T00:35:17.465Z,0.2
2019-04-03T00:35:29.288Z,0.1
2019-04-03T00:35:41.220Z,0.1
2019-04-03T00:35:53.719Z,0.1
2019-04-03T00:36:05.092Z,0.1
2019-04-03T00:36:16.958Z,0.1
2019-04-03T00:36:29.024Z,0.1
2019-04-03T00:36:41.080Z,0.1
2019-04-03T00:36:53.153Z,0.1
2019-04-03T00:37:04.703Z,0.1
2019-04-03T00:37:16.663Z,0.1
2019-04-03T00:37:28.624Z,0.1
2019-04-03T00:37:40.546Z,0.1
2019-04-03T00:37:53.560Z,0.1
2019-04-03T00:38:04.243Z,0.1
2019-04-03T00:38:16.206Z,0.1
2019-04-03T00:38:29.077Z,0.1
2019-04-03T00:38:40.942Z,0.1
2019-04-03T00:38:54.236Z,0.1
2019-04-03T00:39:04.759Z,0.1
2019-04-03T00:39:16.611Z,0.2
2019-04-03T00:39:29.506Z,0.1
2019-04-03T00:39:41.469Z,0.1
2019-04-03T00:39:54.436Z,0.1
2019-04-03T00:40:05.248Z,0.2
2019-04-03T00:40:16.984Z,0.1
2019-04-03T00:40:29.804Z,0.1
2019-04-03T00:40:41.649Z,0.1
2019-04-03T00:40:54.241Z,0.2
2019-04-03T00:41:05.632Z,0.2
2019-04-03T00:41:17.450Z,0.4
2019-04-03T00:41:30.404Z,0.3
2019-04-03T00:41:42.262Z,0.3
2019-04-03T00:41:54.590Z,0.1
2019-04-03T00:42:06.148Z,0.1
2019-04-03T00:42:18.066Z,0.1
2019-04-03T00:42:29.973Z,0.1
2019-04-03T00:42:41.804Z,0.1
2019-04-03T00:42:54.535Z,0.1
2019-04-03T00:43:05.632Z,0.1
2019-04-03T00:43:17.465Z,0.2
2019-04-03T00:43:30.357Z,0.2
2019-04-03T00:43:42.192Z,0.2
2019-04-03T00:43:54.794Z,0.3
2019-04-03T00:44:06.040Z,0.3
2019-04-03T00:44:17.874Z,0.2
2019-04-03T00:44:29.908Z,0.2
2019-04-03T00:44:41.739Z,0.2
2019-04-03T00:44:54.653Z,0.1
2019-04-03T00:45:05.460Z,0.1
2019-04-03T00:45:17.355Z,0.2
2019-04-03T00:45:30.118Z,0.3
2019-04-03T00:45:41.957Z,0.2
2019-04-03T00:45:54.518Z,0.1
2019-04-03T00:46:05.703Z,0.2
2019-04-03T00:46:17.555Z,0.2
2019-04-03T00:46:30.370Z,0.2
2019-04-03T00:46:42.211Z,0.3
2019-04-03T00:46:55.521Z,0.3
2019-04-03T00:47:06.055Z,0.2
2019-04-03T00:47:17.892Z,0.2
2019-04-03T00:47:30.841Z,0.2
2019-04-03T00:47:42.677Z,0.3
2019-04-03T00:47:55.673Z,0.3
2019-04-03T00:48:06.610Z,0.3
2019-04-03T00:48:18.540Z,0.2
2019-04-03T00:48:31.321Z,0.2
2019-04-03T00:48:43.159Z,0.3
2019-04-03T00:48:55.624Z,0.3
2019-04-03T00:49:06.982Z,0.3
2019-04-03T00:49:18.956Z,0.2
2019-04-03T00:49:31.508Z,0.2
2019-04-03T00:49:43.924Z,0.1
2019-04-03T00:49:57.032Z,0.2
2019-04-03T00:50:09.155Z,0.2
2019-04-03T00:50:21.603Z,0.1
2019-04-03T00:50:34.078Z,0.1
2019-04-03T00:50:46.526Z,0.1
2019-04-03T00:50:58.217Z,0.2
2019-04-03T00:51:10.201Z,0.3
2019-04-03T00:51:22.089Z,0.3
2019-04-03T00:51:34.975Z,0.2
2019-04-03T00:51:46.921Z,0.1
2019-04-03T00:51:58.715Z,0.2
2019-04-03T00:52:10.550Z,0.2
2019-04-03T00:52:22.605Z,0.2
2019-04-03T00:52:34.536Z,0.1
2019-04-03T00:52:46.456Z,0.1
2019-04-03T00:52:58.194Z,0.2
2019-04-03T00:53:10.388Z,0.3
2019-04-03T00:53:22.289Z,0.1
2019-04-03T00:53:34.219Z,0.1
2019-04-03T00:53:46.152Z,0.1
2019-04-03T00:53:58.190Z,0.1
2019-04-03T00:54:10.082Z,0.3
2019-04-03T00:54:21.903Z,0.3
2019-04-03T00:54:34.728Z,0.6
2019-04-03T00:54:46.560Z,0.3
2019-04-03T00:54:58.392Z,0.5
2019-04-03T00:55:10.353Z,0.3
2019-04-03T00:55:22.303Z,0.2
2019-04-03T00:55:34.153Z,0.1
2019-04-03T00:55:46.120Z,0.1
2019-04-03T00:55:58.013Z,0.1
2019-04-03T00:56:10.159Z,0.3
2019-04-03T00:56:21.825Z,0.4
2019-04-03T00:56:33.690Z,0.5
2019-04-03T00:56:45.552Z,0.2
2019-04-03T00:56:57.647Z,0.2
2019-04-03T00:57:09.480Z,0.2
2019-04-03T00:57:21.240Z,0.2
2019-04-03T00:57:33.106Z,0.2
2019-04-03T00:57:45.156Z,0.1
2019-04-03T00:57:57.145Z,0.1
2019-04-03T00:58:08.863Z,0.2
2019-04-03T00:58:20.909Z,0.3
2019-04-03T00:58:32.815Z,0.2
2019-04-03T00:58:44.832Z,0.2
2019-04-03T00:58:56.650Z,0.2
2019-04-03T00:59:08.518Z,0.2
2019-04-03T00:59:20.798Z,0.2
2019-04-03T00:59:32.499Z,0.2
2019-04-03T00:59:44.345Z,0.2
2019-04-03T00:59:56.898Z,0.2
2019-04-03T01:00:08.399Z,0.1
2019-04-03T01:00:20.233Z,0.1
2019-04-03T01:00:32.066Z,0.1
2019-04-03T01:00:43.974Z,0.1
2019-04-03T01:00:56.304Z,0.4
2019-04-03T01:01:07.830Z,0.4
2019-04-03T01:01:19.681Z,0.3
2019-04-03T01:01:31.502Z,0.2
2019-04-03T01:01:43.476Z,0.3
2019-04-03T01:01:56.443Z,0.4
2019-04-03T01:02:07.236Z,0.3
2019-04-03T01:02:20.206Z,0.3
2019-04-03T01:02:33.143Z,0.2
2019-04-03T01:02:45.080Z,0.1
2019-04-03T01:02:58.817Z,0.2
2019-04-03T01:03:08.759Z,0.2
2019-04-03T01:03:20.976Z,0.2
2019-04-03T01:03:33.797Z,0.3
2019-04-03T01:03:46.018Z,0.2
2019-04-03T01:03:58.793Z,0.2
2019-04-03T01:04:09.727Z,0.2
2019-04-03T01:04:21.649Z,0.2
2019-04-03T01:04:33.573Z,0.2
2019-04-03T01:04:45.480Z,0.2
2019-04-03T01:04:58.332Z,0.2
2019-04-03T01:05:09.138Z,0.3
2019-04-03T01:05:21.172Z,0.1
2019-04-03T01:05:33.993Z,0.1
2019-04-03T01:05:46.036Z,0.1
2019-04-03T01:05:58.329Z,0.2
2019-04-03T01:06:09.730Z,0.2
2019-04-03T01:06:21.700Z,0.3
2019-04-03T01:06:33.578Z,0.4
2019-04-03T01:06:45.513Z,0.1
2019-04-03T01:06:58.554Z,0.2
2019-04-03T01:07:09.176Z,0.2
2019-04-03T01:07:21.339Z,0.2
2019-04-03T01:07:34.191Z,0.2
2019-04-03T01:07:46.257Z,0.1
2019-04-03T01:07:59.788Z,0.1
2019-04-03T01:08:09.884Z,0.1
2019-04-03T01:08:21.841Z,0.1
2019-04-03T01:08:34.684Z,0.2
2019-04-03T01:08:46.793Z,0.4
2019-04-03T01:08:59.376Z,0.6
2019-04-03T01:09:10.658Z,0.3
2019-04-03T01:09:22.509Z,0.2
2019-04-03T01:09:35.332Z,0.1
2019-04-03T01:09:47.197Z,0.2
2019-04-03T01:09:59.874Z,0.4
2019-04-03T01:10:11.031Z,0.4
2019-04-03T01:10:22.863Z,0.3
2019-04-03T01:10:34.700Z,0.1
2019-04-03T01:10:46.671Z,0.1
2019-04-03T01:10:58.714Z,0.1
2019-04-03T01:11:10.374Z,0.1
2019-04-03T01:11:22.315Z,0.2
2019-04-03T01:11:35.232Z,0.2
2019-04-03T01:11:47.185Z,0.1
2019-04-03T01:12:00.821Z,0.1
2019-04-03T01:12:11.033Z,0.2
2019-04-03T01:12:23.005Z,0.2
2019-04-03T01:12:35.695Z,0.3
2019-04-03T01:12:47.534Z,0.2
2019-04-03T01:12:59.826Z,0.2
2019-04-03T01:13:11.397Z,0.1
2019-04-03T01:13:23.234Z,0.1
2019-04-03T01:13:36.196Z,0.2
2019-04-03T01:13:48.088Z,0.3
2019-04-03T01:14:01.545Z,0.2
2019-04-03T01:14:12.008Z,0.2
2019-04-03T01:14:23.814Z,0.1
2019-04-03T01:14:36.748Z,0.2
2019-04-03T01:14:48.585Z,0.3
2019-04-03T01:15:01.482Z,0.3
2019-04-03T01:15:12.315Z,0.1
2019-04-03T01:15:24.316Z,0.1
2019-04-03T01:15:37.241Z,0.1
2019-04-03T01:15:49.188Z,0.1
2019-04-03T01:16:02.422Z,0.1
2019-04-03T01:16:12.989Z,0.3
2019-04-03T01:16:24.880Z,0.3
2019-04-03T01:16:37.816Z,0.3
2019-04-03T01:16:49.781Z,0.2
2019-04-03T01:17:03.346Z,0.3
2019-04-03T01:17:13.494Z,0.3
2019-04-03T01:17:25.456Z,0.2
2019-04-03T01:17:38.169Z,0.3
2019-04-03T01:17:50.061Z,0.3
2019-04-03T01:18:04.230Z,0.1
2019-04-03T01:18:13.879Z,0.5
2019-04-03T01:18:25.717Z,0.5
2019-04-03T01:18:38.568Z,0.5
2019-04-03T01:18:50.577Z,0.5
2019-04-03T01:19:05.061Z,0.2
2019-04-03T01:19:14.261Z,0.2
2019-04-03T01:19:26.105Z,0.2
2019-04-03T01:19:38.047Z,0.2
2019-04-03T01:19:50.020Z,0.2
2019-04-03T01:20:01.935Z,0.1
2019-04-03T01:20:13.891Z,0.7
2019-04-03T01:20:25.730Z,0.7
2019-04-03T01:20:38.196Z,0.1
2019-04-03T01:20:50.245Z,0.2
2019-04-03T01:21:02.131Z,0.2
2019-04-03T01:21:14.093Z,0.2
2019-04-03T01:21:25.814Z,0.2
2019-04-03T01:21:37.753Z,0.3
2019-04-03T01:21:49.667Z,0.5
2019-04-03T01:22:01.503Z,0.3
2019-04-03T01:22:13.379Z,0.3
2019-04-03T01:22:25.351Z,0.2
2019-04-03T01:22:37.818Z,0.2
2019-04-03T01:22:49.047Z,0.3
2019-04-03T01:23:00.881Z,0.2
2019-04-03T01:23:12.878Z,0.3
2019-04-03T01:23:24.765Z,0.2
2019-04-03T01:23:38.177Z,0.2
2019-04-03T01:23:49.443Z,0.3
2019-04-03T01:24:01.300Z,0.4
2019-04-03T01:24:13.252Z,2.3
2019-04-03T01:24:25.105Z,2.2
2019-04-03T01:24:38.733Z,2.3
2019-04-03T01:24:48.827Z,0.4
2019-04-03T01:25:00.720Z,0.2
2019-04-03T01:25:13.753Z,0.2
2019-04-03T01:25:26.645Z,0.1
2019-04-03T01:25:39.501Z,0.2
2019-04-03T01:25:50.530Z,0.1
2019-04-03T01:26:02.572Z,0.2
2019-04-03T01:26:15.361Z,0.2
2019-04-03T01:26:27.282Z,0.2
2019-04-03T01:26:40.606Z,0.1
2019-04-03T01:26:50.949Z,0.1
2019-04-03T01:27:02.946Z,0.2
2019-04-03T01:27:15.766Z,0.2
2019-04-03T01:27:27.675Z,0.1
2019-04-03T01:27:41.068Z,0.3
2019-04-03T01:27:51.292Z,0.2
2019-04-03T01:28:03.285Z,0.2
2019-04-03T01:28:16.114Z,0.1
2019-04-03T01:28:28.118Z,0.2
2019-04-03T01:28:41.812Z,0.2
2019-04-03T01:28:51.779Z,0.2
2019-04-03T01:29:03.843Z,0.2
2019-04-03T01:29:16.542Z,0.4
2019-04-03T01:29:28.469Z,0.9
2019-04-03T01:29:42.129Z,0.6
2019-04-03T01:29:52.220Z,0.6
2019-04-03T01:30:04.099Z,0.2
2019-04-03T01:30:17.137Z,0.2
2019-04-03T01:30:29.010Z,0.2
2019-04-03T01:30:40.884Z,0.1
2019-04-03T01:30:52.827Z,0.1
2019-04-03T01:31:04.656Z,0.2
2019-04-03T01:31:16.487Z,0.4
2019-04-03T01:31:28.620Z,0.4
2019-04-03T01:31:40.493Z,0.2
2019-04-03T01:31:52.427Z,0.2
2019-04-03T01:32:04.344Z,0.2
2019-04-03T01:32:16.269Z,0.3
2019-04-03T01:32:28.198Z,0.3
2019-04-03T01:32:40.033Z,0.3
2019-04-03T01:32:51.940Z,0.1
2019-04-03T01:33:03.912Z,0.1
2019-04-03T01:33:16.415Z,0.2
2019-04-03T01:33:27.674Z,0.2
2019-04-03T01:33:39.512Z,0.3
2019-04-03T01:33:52.483Z,0.3
2019-04-03T01:34:04.510Z,0.4
2019-04-03T01:34:17.767Z,0.4
2019-04-03T01:34:28.353Z,0.3
2019-04-03T01:34:40.204Z,0.2
2019-04-03T01:34:53.218Z,0.1
2019-04-03T01:35:05.059Z,0.1
2019-04-03T01:35:17.353Z,0.1
2019-04-03T01:35:29.062Z,0.1
2019-04-03T01:35:40.959Z,0.2
2019-04-03T01:35:52.789Z,0.4
2019-04-03T01:36:04.879Z,0.6
2019-04-03T01:36:17.536Z,0.2
2019-04-03T01:36:28.548Z,0.2
2019-04-03T01:36:40.379Z,0.3
2019-04-03T01:36:53.452Z,0.2
2019-04-03T01:37:05.226Z,0.3
2019-04-03T01:37:18.918Z,0.3
2019-04-03T01:37:29.195Z,0.3
2019-04-03T01:37:41.143Z,0.2
2019-04-03T01:37:53.865Z,0.2
2019-04-03T01:38:05.712Z,0.1
2019-04-03T01:38:17.647Z,0.2
2019-04-03T01:38:29.445Z,0.2
2019-04-03T01:38:41.394Z,0.6
2019-04-03T01:38:54.349Z,0.8
2019-04-03T01:39:06.196Z,0.8
2019-04-03T01:39:18.913Z,0.3
2019-04-03T01:39:29.937Z,0.3
2019-04-03T01:39:41.821Z,0.1
2019-04-03T01:39:54.646Z,0.2
2019-04-03T01:40:06.598Z,0.2
2019-04-03T01:40:20.071Z,0.5
2019-04-03T01:40:30.449Z,0.5
2019-04-03T01:40:42.289Z,0.3
2019-04-03T01:40:55.241Z,0.3
2019-04-03T01:41:07.231Z,0.2
2019-04-03T01:41:20.997Z,1
2019-04-03T01:41:30.991Z,0.9
2019-04-03T01:41:42.834Z,0.3
2019-04-03T01:41:55.674Z,0.3
2019-04-03T01:42:07.556Z,0.3
2019-04-03T01:42:21.178Z,0.2
2019-04-03T01:42:31.401Z,0.2
2019-04-03T01:42:43.247Z,0.1
2019-04-03T01:42:56.166Z,0.1
2019-04-03T01:43:08.042Z,0.3
2019-04-03T01:43:19.960Z,0.4
2019-04-03T01:43:31.924Z,0.2
2019-04-03T01:43:43.763Z,0.1
2019-04-03T01:43:55.592Z,0.2
2019-04-03T01:44:07.551Z,0.3
2019-04-03T01:44:19.491Z,0.3
2019-04-03T01:44:31.314Z,0.2
2019-04-03T01:44:43.158Z,0.1
2019-04-03T01:44:55.520Z,0.2
2019-04-03T01:45:06.974Z,0.4
2019-04-03T01:45:18.807Z,0.4
2019-04-03T01:45:31.624Z,0.4
2019-04-03T01:45:43.447Z,0.3
2019-04-03T01:45:56.876Z,0.2
2019-04-03T01:46:07.346Z,0.2
2019-04-03T01:46:19.273Z,0.2
2019-04-03T01:46:32.261Z,0.2
2019-04-03T01:46:44.172Z,0.1
2019-04-03T01:46:57.672Z,0.2
2019-04-03T01:47:07.895Z,0.2
2019-04-03T01:47:19.971Z,0.2
2019-04-03T01:47:32.680Z,0.2
2019-04-03T01:47:44.622Z,0.2
2019-04-03T01:47:58.121Z,0.2
2019-04-03T01:48:08.355Z,0.2
2019-04-03T01:48:20.329Z,0.1
2019-04-03T01:48:33.167Z,0.1
2019-04-03T01:48:45.296Z,0.1
2019-04-03T01:48:58.422Z,0.1
2019-04-03T01:49:08.985Z,0.1
2019-04-03T01:49:20.985Z,0.1
2019-04-03T01:49:33.977Z,0.1
2019-04-03T01:49:45.841Z,0.1
2019-04-03T01:49:58.511Z,0.2
2019-04-03T01:50:09.674Z,0.2
2019-04-03T01:50:21.496Z,0.2
2019-04-03T01:50:34.324Z,0.3
2019-04-03T01:50:46.321Z,0.5
2019-04-03T01:50:59.538Z,0.3
2019-04-03T01:51:10.110Z,0.2
2019-04-03T01:51:21.990Z,0.2
2019-04-03T01:51:34.863Z,0.2
2019-04-03T01:51:46.702Z,0.2
2019-04-03T01:51:58.933Z,0.2
2019-04-03T01:52:10.551Z,0.3
2019-04-03T01:52:22.528Z,0.3
2019-04-03T01:52:35.212Z,0.1
2019-04-03T01:52:47.056Z,0.1
2019-04-03T01:53:01.669Z,0.2
2019-04-03T01:53:10.987Z,0.2
2019-04-03T01:53:22.732Z,0.1
2019-04-03T01:53:34.557Z,0.2
2019-04-03T01:53:46.391Z,0.2
2019-04-03T01:53:58.451Z,0.2
2019-04-03T01:54:10.451Z,0.2
2019-04-03T01:54:22.242Z,0.2
2019-04-03T01:54:34.120Z,0.2
2019-04-03T01:54:46.027Z,0.2
2019-04-03T01:54:57.965Z,0.9
2019-04-03T01:55:09.822Z,0.8
2019-04-03T01:55:21.683Z,0.2
2019-04-03T01:55:34.455Z,0.2
2019-04-03T01:55:45.585Z,0.2
2019-04-03T01:55:57.408Z,0.2
2019-04-03T01:56:10.350Z,0.1
2019-04-03T01:56:22.221Z,0.4
2019-04-03T01:56:35.617Z,0.4
2019-04-03T01:56:46.046Z,0.1
2019-04-03T01:56:58.054Z,0.1
2019-04-03T01:57:10.785Z,0.3
2019-04-03T01:57:22.620Z,0.3
2019-04-03T01:57:35.929Z,0.3
2019-04-03T01:57:46.430Z,0.1
2019-04-03T01:57:58.394Z,0.2
2019-04-03T01:58:11.398Z,0.2
2019-04-03T01:58:23.245Z,0.2
2019-04-03T01:58:36.320Z,0.2
2019-04-03T01:58:46.915Z,0.2
2019-04-03T01:58:58.888Z,0.1
2019-04-03T01:59:11.827Z,0.2
2019-04-03T01:59:24.741Z,0.3
2019-04-03T01:59:37.490Z,0.4
2019-04-03T01:59:48.644Z,0.3
2019-04-03T02:00:00.591Z,0.3
2019-04-03T02:00:13.567Z,0.3
2019-04-03T02:00:25.446Z,0.2
2019-04-03T02:00:37.551Z,0.2
2019-04-03T02:00:49.160Z,0.9
2019-04-03T02:01:01.239Z,0.9
2019-04-03T02:01:13.201Z,0.3
2019-04-03T02:01:24.902Z,0.2
2019-04-03T02:01:38.623Z,0.2
2019-04-03T02:01:48.758Z,0.1
2019-04-03T02:02:00.768Z,0.1
2019-04-03T02:02:13.701Z,0.1
2019-04-03T02:02:25.548Z,0.1
2019-04-03T02:02:38.599Z,1.2
2019-04-03T02:02:49.309Z,1.2
2019-04-03T02:03:02.008Z,1.2
2019-04-03T02:03:14.104Z,0.4
2019-04-03T02:03:26.165Z,0.4
2019-04-03T02:03:37.923Z,0.4
2019-04-03T02:03:49.750Z,2.2
2019-04-03T02:04:01.770Z,2.2
2019-04-03T02:04:13.615Z,0.4
2019-04-03T02:04:25.465Z,0.5
2019-04-03T02:04:37.405Z,0.5
2019-04-03T02:04:49.325Z,0.2
2019-04-03T02:05:01.232Z,0.2
2019-04-03T02:05:13.309Z,0.2
2019-04-03T02:05:25.085Z,0.2
2019-04-03T02:05:36.922Z,0.2
2019-04-03T02:05:48.815Z,0.3
2019-04-03T02:06:00.649Z,0.3
2019-04-03T02:06:13.494Z,0.2
2019-04-03T02:06:24.542Z,0.1
2019-04-03T02:06:36.429Z,0.1
2019-04-03T02:06:49.280Z,0.1
2019-04-03T02:07:01.245Z,0.7
2019-04-03T02:07:14.817Z,0.8
2019-04-03T02:07:25.056Z,0.2
2019-04-03T02:07:37.040Z,0.2
2019-04-03T02:07:49.859Z,0.2
2019-04-03T02:08:01.832Z,0.3
2019-04-03T02:08:14.485Z,0.3
2019-04-03T02:08:25.484Z,0.2
2019-04-03T02:08:37.498Z,0.2
2019-04-03T02:08:50.309Z,0.2
2019-04-03T02:09:02.396Z,0.2
2019-04-03T02:09:15.973Z,0.3
2019-04-03T02:09:26.122Z,0.3
2019-04-03T02:09:38.028Z,0.3
2019-04-03T02:09:50.986Z,0.2
2019-04-03T02:10:02.866Z,0.3
2019-04-03T02:10:15.792Z,0.3
2019-04-03T02:10:26.742Z,0.3
2019-04-03T02:10:38.600Z,0.3
2019-04-03T02:10:50.415Z,0.3
2019-04-03T02:11:02.401Z,0.3
2019-04-03T02:11:14.278Z,0.3
2019-04-03T02:11:26.096Z,0.1
2019-04-03T02:11:38.017Z,0.1
2019-04-03T02:11:49.961Z,0.1
2019-04-03T02:12:01.993Z,0.1
2019-04-03T02:12:13.676Z,0.1
2019-04-03T02:12:25.503Z,0.1
2019-04-03T02:12:37.524Z,0.2
2019-04-03T02:12:51.159Z,0.4
2019-04-03T02:13:01.212Z,0.3
2019-04-03T02:13:13.194Z,0.3
2019-04-03T02:13:26.102Z,0.2
2019-04-03T02:13:38.192Z,0.2
2019-04-03T02:13:51.270Z,0.2
2019-04-03T02:14:02.097Z,0.4
2019-04-03T02:14:13.924Z,0.4
2019-04-03T02:14:26.841Z,0.2
2019-04-03T02:14:38.815Z,0.1
2019-04-03T02:14:51.508Z,0.1
2019-04-03T02:15:02.574Z,0.1
2019-04-03T02:15:14.413Z,0.2
2019-04-03T02:15:27.232Z,0.6
2019-04-03T02:15:39.076Z,0.6
2019-04-03T02:15:52.497Z,0.2
2019-04-03T02:16:02.882Z,0.2
2019-04-03T02:16:14.835Z,0.1
2019-04-03T02:16:27.590Z,0.1
2019-04-03T02:16:39.488Z,0.1
2019-04-03T02:16:52.960Z,0.1
2019-04-03T02:17:03.126Z,0.2
2019-04-03T02:17:15.059Z,0.2
2019-04-03T02:17:28.007Z,0.3
2019-04-03T02:17:39.858Z,0.2
2019-04-03T02:17:54.092Z,0.2
2019-04-03T02:18:03.565Z,0.3
2019-04-03T02:18:15.459Z,0.3
2019-04-03T02:18:27.389Z,0.3
2019-04-03T02:18:39.266Z,0.4
2019-04-03T02:18:51.094Z,0.3
2019-04-03T02:19:03.095Z,0.2
2019-04-03T02:19:14.946Z,0.3
2019-04-03T02:19:26.768Z,0.4
2019-04-03T02:19:38.766Z,0.2
2019-04-03T02:19:50.822Z,0.3
2019-04-03T02:20:02.683Z,0.5
2019-04-03T02:20:14.515Z,0.5
2019-04-03T02:20:27.596Z,0.5
2019-04-03T02:20:39.415Z,0.3
2019-04-03T02:20:51.249Z,0.3
2019-04-03T02:21:03.274Z,0.4
2019-04-03T02:21:15.230Z,0.7
2019-04-03T02:21:27.650Z,0.5
2019-04-03T02:21:38.928Z,0.2
2019-04-03T02:21:50.922Z,0.1
2019-04-03T02:22:03.746Z,0.3
2019-04-03T02:22:15.668Z,0.6
2019-04-03T02:22:29.354Z,0.4
2019-04-03T02:22:39.431Z,0.2
2019-04-03T02:22:51.326Z,0.3
2019-04-03T02:23:04.279Z,0.2
2019-04-03T02:23:16.193Z,0.1
2019-04-03T02:23:28.898Z,0.2
2019-04-03T02:23:40.984Z,0.4
2019-04-03T02:23:52.908Z,0.5
2019-04-03T02:24:05.870Z,0.3
2019-04-03T02:24:17.940Z,0.3
2019-04-03T02:24:31.744Z,0.3
2019-04-03T02:24:41.551Z,0.4
2019-04-03T02:24:53.616Z,0.3
2019-04-03T02:25:06.524Z,0.4
2019-04-03T02:25:18.493Z,0.5
2019-04-03T02:25:32.101Z,0.3
2019-04-03T02:25:42.157Z,0.2
2019-04-03T02:25:54.180Z,0.1
2019-04-03T02:26:07.079Z,0.2
2019-04-03T02:26:19.903Z,1.3
2019-04-03T02:26:32.483Z,1.2
2019-04-03T02:26:43.919Z,0.6
2019-04-03T02:26:55.718Z,0.3
2019-04-03T02:27:08.721Z,0.3
2019-04-03T02:27:20.560Z,0.4
2019-04-03T02:27:33.251Z,0.5
2019-04-03T02:27:44.433Z,0.4
2019-04-03T02:27:56.291Z,0.3
2019-04-03T02:28:09.139Z,0.2
2019-04-03T02:28:21.108Z,0.2
2019-04-03T02:28:34.879Z,0.2
2019-04-03T02:28:44.806Z,0.1
2019-04-03T02:28:56.758Z,0.3
2019-04-03T02:29:09.696Z,0.3
2019-04-03T02:29:21.648Z,0.4
2019-04-03T02:29:33.748Z,0.3
2019-04-03T02:29:45.364Z,0.3
2019-04-03T02:29:57.195Z,0.6
2019-04-03T02:30:11.877Z,0.5
2019-04-03T02:30:21.097Z,0.2
2019-04-03T02:30:33.014Z,0.2
2019-04-03T02:30:46.389Z,0.1
2019-04-03T02:30:56.907Z,0.2
2019-04-03T02:31:09.008Z,0.3
2019-04-03T02:31:21.697Z,0.3
2019-04-03T02:31:33.602Z,0.1
2019-04-03T02:31:45.439Z,0.1
2019-04-03T02:31:58.266Z,0.2
2019-04-03T02:32:10.145Z,0.2
2019-04-03T02:32:23.951Z,0.3
2019-04-03T02:32:34.020Z,0.5
2019-04-03T02:32:45.850Z,0.5
2019-04-03T02:32:58.956Z,0.4
2019-04-03T02:33:10.613Z,0.4
2019-04-03T02:33:22.461Z,0.3
2019-04-03T02:33:34.449Z,0.3
2019-04-03T02:33:46.299Z,0.3
2019-04-03T02:34:01.082Z,0.2
2019-04-03T02:34:10.095Z,0.1
2019-04-03T02:34:22.055Z,0.2
2019-04-03T02:34:35.577Z,0.3
2019-04-03T02:34:45.822Z,0.4
2019-04-03T02:34:57.658Z,0.4
2019-04-03T02:35:10.550Z,0.3
2019-04-03T02:35:22.522Z,0.4
2019-04-03T02:35:34.533Z,0.2
2019-04-03T02:35:46.573Z,0.1
2019-04-03T02:35:58.246Z,0.2
2019-04-03T02:36:12.132Z,0.2
2019-04-03T02:36:22.127Z,0.1
2019-04-03T02:36:34.084Z,0.3
2019-04-03T02:36:47.024Z,0.4
2019-04-03T02:36:59.010Z,0.5
2019-04-03T02:37:10.773Z,0.8
2019-04-03T02:37:22.922Z,0.7
2019-04-03T02:37:34.639Z,0.4
2019-04-03T02:37:49.585Z,0.2
2019-04-03T02:37:58.284Z,0.1
2019-04-03T02:38:10.406Z,0.1
2019-04-03T02:38:23.399Z,0.1
2019-04-03T02:38:34.242Z,0.2
2019-04-03T02:38:46.128Z,0.2
2019-04-03T02:38:58.963Z,0.3
2019-04-03T02:39:10.814Z,0.2
2019-04-03T02:39:25.513Z,0.5
2019-04-03T02:39:34.782Z,1
2019-04-03T02:39:46.623Z,1
2019-04-03T02:40:00.039Z,0.2
2019-04-03T02:40:10.417Z,0.2
2019-04-03T02:40:22.392Z,0.5
2019-04-03T02:40:35.301Z,0.5
2019-04-03T02:40:47.266Z,0.2
2019-04-03T02:40:59.437Z,0.1
2019-04-03T02:41:10.931Z,0.1
2019-04-03T02:41:23.004Z,0.2
2019-04-03T02:41:36.410Z,0.2
2019-04-03T02:41:46.767Z,0.4
2019-04-03T02:41:58.608Z,0.5
2019-04-03T02:42:11.644Z,0.4
2019-04-03T02:42:23.401Z,0.3
2019-04-03T02:42:35.355Z,0.2
2019-04-03T02:42:47.190Z,0.1
2019-04-03T02:42:59.101Z,0.6
2019-04-03T02:43:13.979Z,0.6
2019-04-03T02:43:23.755Z,0.1
2019-04-03T02:43:35.669Z,0.2
2019-04-03T02:43:48.483Z,0.1
2019-04-03T02:44:00.593Z,0.2
2019-04-03T02:44:12.345Z,0.3
2019-04-03T02:44:25.162Z,0.3
2019-04-03T02:44:37.119Z,0.4
2019-04-03T02:44:50.893Z,0.3
2019-04-03T02:45:00.806Z,0.4
2019-04-03T02:45:12.684Z,0.5
2019-04-03T02:45:25.840Z,0.5
2019-04-03T02:45:37.458Z,0.3
2019-04-03T02:45:49.285Z,0.1
2019-04-03T02:46:02.328Z,0.2